Accueil
METAR-TAF:

METAR-TAF

Aéroports :

Aéroport de Tarbes-Lourdes-Pyrénées

Tarbes Lourdes, France

latitude: 43-11N, longitude: 000-00W, altitude: 379 m

Observation

Le bulletin a été fait il y a 14 minutes, à 08:30 UTC
Vent 3 kt de nord/nord-est, variant entre nord et nord-est
Température 18°C
Humidité 52%
Pression 1021 hPa
Visibilité 10 km ou plus
pas de nuages en-dessous de 1500 mètres et pas de cumulonimbus.

METAR: LFBT 090830Z AUTO 02003KT 350V050 CAVOK 18/08 Q1021

Heure: 10:44 (08:44 UTC)


TAF: absent

Observations et prévisions météorologiques de plus de 4000 aéroports (messages METAR et TAF).

Les stations disponibles sont représentées par des disques jaunes et rouges sur la carte.

Passer la souris dessus pour voir le nom de la station.

Cliquer dessus pour voir les observations et prévisions météorologiques.

Pour changer de carte: cliquez sur les boutons verts avec une croix noire pour zoomer, sur le bouton vert avec un tiret pour effectuer un zoom arrière, ou sur les flèches vertes pour les cartes adjacentes.


METAR-TAF: